Time;durP1;ratioP1;P1;durP2;ratioP2;P2;SDS_P1;SDS_P2;PMS_P1;PMS_P2;Temp;Humidity;BMP_temperature;BMP_pressure;BME280_temperature;BME280_humidity;BME280_pressure;Samples;Min_cycle;Max_cycle;Signal;HPM_P1;HPM_P2
2023/01/07 00:00:09;;;;;;;223.00;214.07;;;10.40;99.90;;;;;;4984243;28;20458;-82
2023/01/07 00:02:36;;;;;;;207.57;200.23;;;10.40;99.90;;;;;;4970681;28;20460;-82
2023/01/07 00:05:02;;;;;;;229.80;221.57;;;10.40;99.90;;;;;;4965738;28;20566;-82
2023/01/07 00:07:29;;;;;;;231.10;222.80;;;10.40;99.90;;;;;;4978860;28;20826;-82
2023/01/07 00:09:56;;;;;;;233.77;225.07;;;10.40;99.90;;;;;;4985286;28;20463;-82
2023/01/07 00:12:26;;;;;;;249.80;240.63;;;10.40;99.90;;;;;;4972565;28;20458;-83
2023/01/07 00:14:53;;;;;;;255.87;246.53;;;10.50;99.90;;;;;;4965002;28;20475;-83
2023/01/07 00:17:20;;;;;;;277.23;266.77;;;10.40;99.90;;;;;;4976933;28;20574;-83
2023/01/07 00:19:47;;;;;;;285.13;273.57;;;10.40;99.90;;;;;;4985663;28;20451;-83
2023/01/07 00:22:13;;;;;;;279.17;268.67;;;10.40;99.90;;;;;;4970255;28;20463;-82
2023/01/07 00:24:40;;;;;;;286.17;274.77;;;10.40;99.90;;;;;;4965286;28;20487;-83
2023/01/07 00:27:07;;;;;;;283.53;272.57;;;10.40;99.90;;;;;;4966127;28;20452;-83
2023/01/07 00:29:35;;;;;;;269.77;259.37;;;10.50;99.90;;;;;;4965313;28;20447;-83
2023/01/07 00:32:01;;;;;;;264.67;254.03;;;10.50;99.90;;;;;;4975953;28;20455;-83
2023/01/07 00:34:28;;;;;;;236.53;227.80;;;10.50;99.90;;;;;;4984997;28;20463;-85
2023/01/07 00:37:48;;;;;;;219.60;211.40;;;10.50;99.90;;;;;;4975107;28;20475;-83
2023/01/07 00:39:42;;;;;;;211.50;204.00;;;10.60;99.90;;;;;;4965451;28;20483;-83
2023/01/07 00:44:55;;;;;;;194.43;187.53;;;10.60;99.90;;;;;;4984760;28;21024;-83
2023/01/07 00:47:22;;;;;;;200.53;193.43;;;10.60;99.90;;;;;;4972430;28;20455;-82
2023/01/07 00:49:48;;;;;;;201.20;194.17;;;10.50;99.90;;;;;;4965104;28;20499;-82
2023/01/07 00:52:15;;;;;;;199.20;192.20;;;10.50;99.90;;;;;;4966274;28;20460;-84
2023/01/07 00:54:42;;;;;;;189.67;182.93;;;10.50;99.90;;;;;;4971619;28;20486;-82
2023/01/07 00:57:12;;;;;;;184.10;177.80;;;10.40;99.90;;;;;;4984165;28;20483;-83
2023/01/07 00:59:38;;;;;;;195.37;188.47;;;10.40;99.90;;;;;;4978939;28;20522;-82
2023/01/07 01:02:06;;;;;;;206.77;199.47;;;10.30;99.90;;;;;;4965631;28;20466;-83
2023/01/07 01:04:33;;;;;;;216.50;208.87;;;10.20;99.90;;;;;;4968736;28;20451;-83
2023/01/07 01:07:00;;;;;;;226.37;218.17;;;10.20;99.90;;;;;;4984336;28;20451;-83
2023/01/07 01:09:27;;;;;;;240.07;231.30;;;10.10;99.90;;;;;;4980921;28;20484;-83
2023/01/07 01:11:53;;;;;;;248.50;239.10;;;10.00;99.90;;;;;;4965341;28;20487;-83
2023/01/07 01:14:20;;;;;;;262.07;252.07;;;10.00;99.90;;;;;;4966952;28;20459;-83
2023/01/07 01:16:47;;;;;;;286.00;275.17;;;10.00;99.90;;;;;;4984473;28;20538;-82
2023/01/07 01:19:15;;;;;;;293.20;281.93;;;9.90;99.90;;;;;;4977488;28;20466;-83
2023/01/07 01:21:42;;;;;;;305.47;293.60;;;9.90;99.90;;;;;;4965068;28;20462;-83
2023/01/07 01:24:09;;;;;;;291.87;280.37;;;10.00;99.90;;;;;;4967550;28;20465;-84
2023/01/07 01:26:36;;;;;;;306.50;294.50;;;10.00;99.90;;;;;;4983842;28;20471;-83
2023/01/07 01:29:02;;;;;;;302.03;289.83;;;10.00;99.90;;;;;;4970704;28;20466;-84
2023/01/07 01:31:29;;;;;;;283.23;272.20;;;10.00;99.90;;;;;;4965241;28;20456;-82
2023/01/07 01:33:58;;;;;;;253.90;244.43;;;10.10;99.90;;;;;;4965425;28;20452;-83
2023/01/07 01:36:26;;;;;;;224.53;216.33;;;10.10;99.90;;;;;;4964239;28;20483;-82
2023/01/07 01:38:53;;;;;;;216.73;208.57;;;10.10;99.90;;;;;;4974640;28;20461;-85
2023/01/07 01:41:20;;;;;;;209.03;201.37;;;10.10;99.90;;;;;;4983197;28;20455;-83
2023/01/07 01:43:46;;;;;;;216.77;208.17;;;10.10;99.90;;;;;;4974624;28;20458;-82
2023/01/07 01:46:16;;;;;;;203.80;196.20;;;10.10;99.90;;;;;;4963647;28;20555;-83
2023/01/07 01:48:48;;;;;;;194.43;187.33;;;10.10;99.90;;;;;;4975986;28;20538;-82
2023/01/07 01:51:18;;;;;;;179.13;172.37;;;10.10;99.90;;;;;;4983610;28;20457;-83
2023/01/07 01:53:46;;;;;;;161.53;155.77;;;10.10;99.90;;;;;;4971121;28;20977;-83
2023/01/07 01:56:15;;;;;;;159.93;154.27;;;10.10;99.90;;;;;;4964175;28;20480;-83
2023/01/07 01:58:47;;;;;;;159.20;153.67;;;10.20;99.90;;;;;;4974589;28;20478;-83
2023/01/07 02:01:14;;;;;;;159.40;153.60;;;10.10;99.90;;;;;;4983748;28;20469;-83
2023/01/07 02:03:41;;;;;;;166.10;160.30;;;10.00;99.90;;;;;;4971247;28;20456;-82
2023/01/07 02:06:18;;;;;;;159.33;153.77;;;10.00;99.90;;;;;;4963263;28;20476;-83
2023/01/07 02:08:46;;;;;;;162.03;156.40;;;9.90;99.90;;;;;;4974681;28;20451;-83
2023/01/07 02:11:27;;;;;;;173.70;167.70;;;9.80;99.90;;;;;;4983146;28;20469;-82
2023/01/07 02:14:10;;;;;;;202.20;195.23;;;9.70;99.90;;;;;;4970906;28;20462;-83
2023/01/07 02:16:44;;;;;;;233.70;225.33;;;9.70;99.90;;;;;;4963269;28;20486;-83
2023/01/07 02:19:37;;;;;;;249.50;240.20;;;9.60;99.90;;;;;;4978143;28;20458;-83
2023/01/07 02:22:11;;;;;;;295.43;284.27;;;9.50;99.90;;;;;;4982421;28;20810;-82
2023/01/07 02:25:10;;;;;;;319.43;307.03;;;9.40;99.90;;;;;;4966217;28;20460;-82
2023/01/07 02:28:16;;;;;;;350.87;337.00;;;9.20;99.90;;;;;;4964549;28;20451;-82
2023/01/07 02:30:59;;;;;;;395.90;379.90;;;9.00;99.90;;;;;;4982444;28;20995;-83
2023/01/07 02:33:40;;;;;;;436.17;417.90;;;8.90;99.90;;;;;;4982753;28;20458;-82
2023/01/07 02:36:35;;;;;;;466.03;445.57;;;8.80;99.90;;;;;;4982666;28;20494;-85
2023/01/07 02:39:17;;;;;;;500.70;477.47;;;8.70;99.90;;;;;;4970264;28;20478;-83
2023/01/07 02:41:55;;;;;;;528.57;502.40;;;8.70;99.90;;;;;;4963905;28;20455;-82
2023/01/07 02:44:29;;;;;;;546.93;518.33;;;8.70;99.90;;;;;;4964022;28;20452;-86
2023/01/07 02:47:01;;;;;;;553.80;524.43;;;8.60;99.90;;;;;;4963771;28;20455;-83
2023/01/07 02:49:29;;;;;;;571.27;539.90;;;8.70;99.90;;;;;;4981137;28;20451;-82
2023/01/07 02:51:56;;;;;;;585.53;552.67;;;8.60;99.90;;;;;;4982565;28;20465;-82
2023/01/07 02:54:28;;;;;;;588.90;554.30;;;8.60;99.90;;;;;;4965225;28;20452;-80
2023/01/07 02:57:21;;;;;;;612.50;577.50;;;8.50;99.90;;;;;;4976496;28;20527;-82
2023/01/07 03:00:04;;;;;;;625.27;589.77;;;8.40;99.90;;;;;;4982599;28;20454;-83
2023/01/07 03:03:11;;;;;;;651.83;613.27;;;8.20;99.90;;;;;;4965000;28;20451;-82
2023/01/07 03:05:57;;;;;;;660.00;620.10;;;8.20;99.90;;;;;;4921143;29;20496;-84
2023/01/07 03:08:42;;;;;;;674.17;632.87;;;8.00;99.90;;;;;;4922969;29;20466;-82
2023/01/07 03:11:11;;;;;;;686.37;642.07;;;7.90;99.90;;;;;;4950327;28;20495;-82
2023/01/07 03:13:42;;;;;;;697.53;647.53;;;7.90;99.90;;;;;;4967342;28;20465;-82
2023/01/07 03:16:15;;;;;;;700.97;649.63;;;7.90;99.90;;;;;;4981739;28;20475;-82
2023/01/07 03:18:47;;;;;;;698.40;644.30;;;8.00;99.90;;;;;;4976817;28;20552;-82
2023/01/07 03:21:18;;;;;;;700.57;644.40;;;8.00;99.90;;;;;;4962388;28;20463;-83
2023/01/07 03:23:50;;;;;;;703.43;647.23;;;8.10;99.90;;;;;;4967223;28;20447;-84
2023/01/07 03:26:20;;;;;;;685.43;629.50;;;8.00;99.90;;;;;;4982161;28;20475;-82
2023/01/07 03:28:48;;;;;;;689.73;634.93;;;8.10;99.90;;;;;;4981393;28;20451;-82
2023/01/07 03:31:16;;;;;;;681.43;627.33;;;8.20;99.90;;;;;;4970883;28;20491;-82
2023/01/07 03:34:24;;;;;;;680.77;628.40;;;8.20;99.90;;;;;;4969127;28;20448;-84
2023/01/07 03:37:35;;;;;;;682.80;630.93;;;8.10;99.90;;;;;;4978591;28;20455;-83
2023/01/07 03:40:08;;;;;;;695.57;644.03;;;8.00;99.90;;;;;;4965894;28;20991;-84
2023/01/07 03:42:41;;;;;;;702.07;649.50;;;8.00;99.90;;;;;;4985407;28;20455;-85
2023/01/07 03:45:11;;;;;;;704.30;652.10;;;8.00;99.90;;;;;;4966543;28;20965;-82
2023/01/07 03:47:40;;;;;;;716.27;663.83;;;7.80;99.90;;;;;;4969278;28;20440;-84
2023/01/07 03:50:08;;;;;;;714.97;661.90;;;7.80;99.90;;;;;;4963647;29;20449;-83
2023/01/07 03:52:37;;;;;;;718.20;663.93;;;7.70;99.90;;;;;;4963605;28;20450;-82
2023/01/07 03:55:04;;;;;;;712.90;657.37;;;7.70;99.90;;;;;;4962812;28;20470;-82
2023/01/07 03:57:31;;;;;;;705.80;649.83;;;7.70;99.90;;;;;;4962586;29;20476;-83
2023/01/07 03:59:58;;;;;;;698.90;642.03;;;7.60;99.90;;;;;;4962300;28;20448;-82
2023/01/07 04:02:25;;;;;;;686.20;628.90;;;7.60;99.90;;;;;;4963416;29;20480;-84
2023/01/07 04:04:52;;;;;;;682.70;625.03;;;7.70;99.90;;;;;;4963229;29;20556;-83
2023/01/07 04:07:19;;;;;;;686.13;630.03;;;7.80;99.90;;;;;;4963277;28;20460;-82
2023/01/07 04:09:49;;;;;;;689.20;633.67;;;8.00;99.90;;;;;;4963557;28;20835;-83
2023/01/07 04:12:16;;;;;;;677.80;623.60;;;8.10;99.90;;;;;;4962823;28;20519;-84
2023/01/07 04:14:42;;;;;;;691.63;637.07;;;8.10;99.90;;;;;;4963499;28;20486;-83
2023/01/07 04:17:09;;;;;;;688.57;634.80;;;8.10;99.90;;;;;;4962271;28;20462;-82
2023/01/07 04:19:37;;;;;;;672.70;620.50;;;8.30;99.90;;;;;;4968139;28;20455;-85
2023/01/07 04:22:04;;;;;;;598.37;558.23;;;8.50;99.90;;;;;;4980025;28;20482;-85
2023/01/07 04:24:30;;;;;;;491.20;464.10;;;8.90;99.90;;;;;;4979021;28;20462;-83
2023/01/07 04:26:58;;;;;;;392.77;373.23;;;9.10;99.90;;;;;;4979388;28;20466;-83
2023/01/07 04:29:25;;;;;;;331.87;315.63;;;9.30;99.90;;;;;;4963347;28;20523;-83
2023/01/07 04:31:52;;;;;;;293.37;279.80;;;9.50;99.90;;;;;;4962101;28;20452;-83
2023/01/07 04:34:19;;;;;;;259.00;247.63;;;9.60;99.90;;;;;;4974374;28;20455;-83
2023/01/07 04:36:46;;;;;;;252.23;241.57;;;9.70;99.90;;;;;;4965620;28;20456;-84
2023/01/07 04:39:13;;;;;;;249.93;239.90;;;9.80;99.90;;;;;;4965041;28;20463;-83
2023/01/07 04:41:40;;;;;;;241.30;231.37;;;9.90;99.90;;;;;;4961884;28;20548;-82
2023/01/07 04:44:08;;;;;;;229.00;220.00;;;9.80;99.90;;;;;;4964903;28;20460;-83
2023/01/07 04:46:35;;;;;;;216.30;208.20;;;9.90;99.90;;;;;;4965155;28;20486;-82
2023/01/07 04:49:02;;;;;;;199.63;192.00;;;9.90;99.90;;;;;;4965504;28;20448;-83
2023/01/07 04:51:28;;;;;;;195.43;188.13;;;9.80;99.90;;;;;;4964952;29;20451;-82
2023/01/07 04:53:56;;;;;;;187.33;180.53;;;9.80;99.90;;;;;;4964453;29;20460;-82
2023/01/07 04:56:23;;;;;;;174.40;168.27;;;9.80;99.90;;;;;;4964357;29;20901;-83
2023/01/07 04:58:49;;;;;;;155.57;150.03;;;9.80;99.90;;;;;;4965195;28;20475;-82
2023/01/07 05:01:18;;;;;;;144.30;139.23;;;9.80;99.90;;;;;;4965277;29;20975;-83
2023/01/07 05:03:44;;;;;;;140.47;135.50;;;9.70;99.90;;;;;;4964949;28;20459;-84
2023/01/07 05:06:11;;;;;;;129.80;124.97;;;9.60;99.90;;;;;;4964903;28;20471;-82
2023/01/07 05:08:38;;;;;;;112.93;109.03;;;9.70;99.90;;;;;;4964823;28;20451;-85
2023/01/07 05:11:05;;;;;;;101.90;98.43;;;9.70;99.90;;;;;;4964793;29;20455;-83
2023/01/07 05:13:34;;;;;;;92.13;88.70;;;9.70;99.90;;;;;;4965534;28;20466;-83
2023/01/07 05:16:01;;;;;;;83.00;80.10;;;9.70;99.90;;;;;;4964711;29;20480;-85
2023/01/07 05:18:29;;;;;;;67.37;64.87;;;9.60;99.90;;;;;;4965220;28;20475;-83
2023/01/07 05:20:56;;;;;;;72.90;70.17;;;9.50;99.90;;;;;;4964928;28;20460;-83
2023/01/07 05:23:22;;;;;;;86.33;83.13;;;9.40;99.90;;;;;;4965277;29;20448;-83
2023/01/07 05:25:49;;;;;;;99.50;96.10;;;9.30;99.90;;;;;;4970415;28;20475;-83
2023/01/07 05:28:16;;;;;;;111.27;107.37;;;9.20;99.90;;;;;;4983800;28;20455;-83
2023/01/07 05:30:43;;;;;;;116.63;112.20;;;9.30;99.90;;;;;;4964645;28;20458;-83
2023/01/07 05:33:09;;;;;;;112.60;108.70;;;9.40;99.90;;;;;;4964341;28;20455;-83
2023/01/07 05:35:37;;;;;;;101.03;97.53;;;9.30;99.90;;;;;;4964494;28;20483;-82
2023/01/07 05:38:05;;;;;;;94.30;91.10;;;9.30;99.90;;;;;;4967840;28;20476;-82
2023/01/07 05:40:31;;;;;;;93.43;90.20;;;9.30;99.90;;;;;;4964161;28;20661;-82
2023/01/07 05:42:58;;;;;;;84.83;81.73;;;9.30;99.90;;;;;;4967839;28;20458;-82
2023/01/07 05:45:25;;;;;;;75.37;72.70;;;9.40;99.90;;;;;;4963648;28;20866;-83
2023/01/07 05:47:51;;;;;;;68.97;66.40;;;9.50;99.90;;;;;;4965208;28;20981;-82
2023/01/07 05:50:18;;;;;;;63.00;60.30;;;9.50;99.90;;;;;;4972043;28;20946;-84
2023/01/07 05:52:46;;;;;;;54.57;52.13;;;9.50;99.90;;;;;;4984328;28;20461;-83
2023/01/07 05:55:13;;;;;;;46.77;44.60;;;9.60;99.90;;;;;;4982695;28;21020;-83
2023/01/07 05:57:40;;;;;;;40.60;38.70;;;9.60;99.90;;;;;;4981036;28;20985;-83
2023/01/07 06:00:09;;;;;;;38.70;36.70;;;9.60;99.90;;;;;;4982284;28;20459;-84
2023/01/07 06:02:36;;;;;;;35.53;34.00;;;9.70;99.90;;;;;;4968714;28;20461;-82
2023/01/07 06:05:02;;;;;;;30.70;29.27;;;9.70;99.90;;;;;;4981448;28;21002;-83
2023/01/07 06:07:29;;;;;;;27.80;26.50;;;9.70;99.90;;;;;;4983608;28;20459;-83
2023/01/07 06:09:57;;;;;;;29.43;28.13;;;9.70;99.90;;;;;;4967918;28;20978;-82
2023/01/07 06:12:24;;;;;;;36.50;34.67;;;9.70;99.90;;;;;;4963524;28;20463;-82
2023/01/07 06:14:51;;;;;;;38.93;37.43;;;9.70;99.90;;;;;;4975133;28;20475;-83
2023/01/07 06:17:17;;;;;;;38.53;36.83;;;9.70;99.90;;;;;;4964448;28;20466;-82
2023/01/07 06:19:44;;;;;;;33.93;32.50;;;9.80;99.90;;;;;;4981180;28;20497;-82
2023/01/07 06:22:11;;;;;;;30.13;28.83;;;9.70;99.90;;;;;;4982301;28;20946;-81
2023/01/07 06:24:38;;;;;;;31.70;30.30;;;9.80;99.90;;;;;;4972917;28;20448;-82
2023/01/07 06:27:06;;;;;;;28.60;27.37;;;9.80;99.90;;;;;;4973958;28;20451;-82
2023/01/07 06:29:33;;;;;;;27.23;26.03;;;9.80;99.90;;;;;;4972208;28;20452;-82
2023/01/07 06:31:59;;;;;;;28.90;27.70;;;9.70;99.90;;;;;;4969197;28;20455;-82
2023/01/07 06:34:26;;;;;;;29.90;28.70;;;9.70;99.90;;;;;;4962139;28;20909;-78
2023/01/07 06:36:53;;;;;;;31.43;30.03;;;9.80;99.90;;;;;;4966580;28;20985;-82
2023/01/07 06:39:19;;;;;;;34.30;32.80;;;9.70;99.90;;;;;;4962251;28;20476;-82
2023/01/07 06:41:46;;;;;;;33.73;32.07;;;9.70;99.90;;;;;;4962136;28;20463;-83
2023/01/07 06:44:14;;;;;;;32.23;30.83;;;9.70;99.90;;;;;;4962490;28;20455;-82
2023/01/07 06:46:41;;;;;;;31.30;30.00;;;9.60;99.90;;;;;;4961736;28;20475;-82
2023/01/07 06:49:08;;;;;;;24.33;23.33;;;9.60;99.90;;;;;;4963701;28;20444;-82
2023/01/07 06:51:35;;;;;;;26.10;25.00;;;9.60;99.90;;;;;;4962484;28;20456;-82
2023/01/07 06:54:02;;;;;;;25.77;24.60;;;9.70;99.90;;;;;;4976915;28;20826;-82
2023/01/07 06:56:29;;;;;;;26.57;25.27;;;9.70;99.90;;;;;;4972029;28;20480;-82
2023/01/07 06:58:56;;;;;;;23.93;22.73;;;9.70;99.90;;;;;;4962593;28;20507;-82
2023/01/07 07:01:24;;;;;;;18.60;17.57;;;9.80;99.90;;;;;;4971046;28;20970;-82
2023/01/07 07:03:50;;;;;;;16.13;15.23;;;9.80;99.90;;;;;;4981415;28;20455;-82
2023/01/07 07:06:17;;;;;;;16.77;15.90;;;9.80;99.90;;;;;;4975239;28;20472;-83
2023/01/07 07:08:44;;;;;;;14.50;13.60;;;9.80;99.90;;;;;;4970995;28;20460;-82
2023/01/07 07:11:11;;;;;;;15.60;14.13;;;9.80;99.90;;;;;;4962317;28;20459;-82
2023/01/07 07:13:37;;;;;;;13.60;12.80;;;9.80;99.90;;;;;;4962954;29;20466;-83
2023/01/07 07:16:05;;;;;;;13.60;12.80;;;9.90;99.90;;;;;;4966810;28;20479;-82
2023/01/07 07:18:33;;;;;;;16.10;15.30;;;9.80;99.90;;;;;;4980758;28;20490;-81
2023/01/07 07:21:00;;;;;;;14.90;14.10;;;10.00;99.90;;;;;;4976266;28;21002;-82
2023/01/07 07:23:26;;;;;;;16.70;15.70;;;10.00;99.90;;;;;;4961183;28;20549;-81
2023/01/07 07:25:53;;;;;;;10.50;9.70;;;10.00;99.90;;;;;;4963644;28;20483;-82
2023/01/07 07:28:20;;;;;;;10.90;10.30;;;10.00;99.90;;;;;;4980780;28;20470;-82
2023/01/07 07:30:47;;;;;;;13.57;12.30;;;10.10;99.90;;;;;;4978891;28;20462;-82
2023/01/07 07:33:14;;;;;;;8.00;7.40;;;10.20;99.90;;;;;;4960608;28;20959;-82
2023/01/07 07:35:42;;;;;;;7.27;6.53;;;10.20;99.90;;;;;;4976199;28;20483;-82
2023/01/07 07:38:09;;;;;;;9.50;8.90;;;10.40;99.90;;;;;;4979822;28;20465;-81
2023/01/07 07:40:36;;;;;;;5.63;5.13;;;10.40;99.90;;;;;;4964284;28;20502;-81
2023/01/07 07:43:03;;;;;;;5.20;4.80;;;10.50;99.90;;;;;;4969401;28;20462;-82
2023/01/07 07:45:30;;;;;;;4.57;4.17;;;10.60;99.90;;;;;;4979940;28;20482;-81
2023/01/07 07:47:57;;;;;;;4.03;2.63;;;10.60;99.90;;;;;;4973719;28;20458;-85
2023/01/07 07:50:24;;;;;;;5.13;3.30;;;10.60;99.90;;;;;;4960974;28;20452;-82
2023/01/07 07:52:52;;;;;;;10.20;3.70;;;10.60;99.90;;;;;;4967221;28;20458;-82
2023/01/07 07:55:19;;;;;;;5.03;2.97;;;10.60;99.90;;;;;;4976667;28;20479;-81
2023/01/07 07:57:45;;;;;;;4.90;2.30;;;10.50;99.90;;;;;;4961415;28;20483;-84
2023/01/07 08:00:13;;;;;;;4.23;2.13;;;10.40;99.90;;;;;;4972751;28;20489;-82
2023/01/07 08:02:40;;;;;;;4.70;2.13;;;10.40;99.90;;;;;;4980157;28;20467;-81
2023/01/07 08:05:10;;;;;;;4.23;2.20;;;10.30;99.90;;;;;;4969572;28;20495;-81
2023/01/07 08:07:37;;;;;;;3.73;1.80;;;10.30;99.90;;;;;;4961738;28;20452;-81
2023/01/07 08:10:06;;;;;;;7.27;3.13;;;10.20;99.90;;;;;;4971075;28;20538;-81
2023/01/07 08:12:36;;;;;;;4.20;2.53;;;10.20;99.90;;;;;;4980322;28;20458;-82
2023/01/07 08:15:02;;;;;;;3.87;2.30;;;10.20;99.90;;;;;;4971915;28;20551;-83
2023/01/07 08:17:29;;;;;;;4.13;2.30;;;10.20;99.90;;;;;;4961231;28;20466;-83
2023/01/07 08:19:56;;;;;;;4.40;2.20;;;10.20;99.90;;;;;;4970516;28;20475;-82
2023/01/07 08:22:23;;;;;;;3.73;2.43;;;10.20;99.90;;;;;;4985084;28;20837;-83
2023/01/07 08:24:49;;;;;;;5.83;3.27;;;10.20;99.90;;;;;;4982831;28;20555;-82
2023/01/07 08:27:17;;;;;;;5.13;2.80;;;10.20;99.90;;;;;;4975494;28;20459;-82
2023/01/07 08:29:44;;;;;;;7.00;3.40;;;10.10;99.90;;;;;;4968031;28;20447;-82
2023/01/07 08:32:11;;;;;;;3.70;3.10;;;10.10;99.90;;;;;;4973697;28;20831;-83
2023/01/07 08:34:38;;;;;;;4.80;4.23;;;10.10;99.90;;;;;;4971922;28;20458;-82
2023/01/07 08:37:05;;;;;;;4.90;4.00;;;10.10;99.90;;;;;;4966042;28;20452;-85
2023/01/07 08:39:32;;;;;;;5.30;4.80;;;10.10;99.90;;;;;;4986180;28;20478;-84
2023/01/07 08:42:13;;;;;;;5.83;5.23;;;10.20;99.90;;;;;;4986929;28;20455;-84
2023/01/07 08:48:22;;;;;;;;;;;;;;;;;;;;;
2023/01/07 08:54:07;;;;;;;13.38;12.43;;;10.30;99.90;;;;;;4960504;28;20845;-87
2023/01/07 08:57:07;;;;;;;15.10;14.20;;;10.30;99.90;;;;;;4961226;28;20280;-86
2023/01/07 08:59:48;;;;;;;14.70;13.70;;;10.40;99.90;;;;;;4943672;28;20978;-86
2023/01/07 09:03:03;;;;;;;13.40;12.50;;;10.40;99.90;;;;;;4960748;28;20455;-86
2023/01/07 09:05:33;;;;;;;10.17;9.53;;;10.50;99.90;;;;;;4936795;29;20484;-88
2023/01/07 09:08:01;;;;;;;8.30;7.60;;;10.60;99.90;;;;;;4940974;29;20457;-86
2023/01/07 09:17:34;;;;;;;6.97;6.43;;;10.50;99.90;;;;;;4959967;28;20456;-87
2023/01/07 09:20:03;;;;;;;9.20;8.37;;;10.50;99.90;;;;;;4889349;29;20481;-87
2023/01/07 09:23:03;;;;;;;7.93;7.33;;;10.40;99.90;;;;;;4919778;29;20461;-87
2023/01/07 09:26:00;;;;;;;8.17;7.40;;;10.40;99.90;;;;;;4919737;29;20533;-86
2023/01/07 09:35:28;;;;;;;8.87;8.23;;;10.50;99.90;;;;;;4966508;28;20880;-86
2023/01/07 09:38:22;;;;;;;10.50;9.80;;;10.50;99.90;;;;;;4964992;28;20462;-85
2023/01/07 09:44:54;;;;;;;;;;;;;;;;;;;;;
2023/01/07 09:51:20;;;;;;;5.93;5.43;;;10.70;99.90;;;;;;4859403;29;20461;-84
2023/01/07 09:57:35;;;;;;;;;;;;;;;;;;;;;
2023/01/07 10:00:33;;;;;;;;;;;;;;;;;;;;;
2023/01/07 10:07:13;;;;;;;5.30;4.70;;;11.10;99.90;;;;;;4960146;28;20476;-85
2023/01/07 10:09:57;;;;;;;4.70;3.67;;;11.10;99.90;;;;;;4981889;28;20471;-86
2023/01/07 10:12:30;;;;;;;5.03;3.73;;;11.20;99.90;;;;;;4968615;28;20452;-85
2023/01/07 10:15:29;;;;;;;4.87;3.20;;;11.20;99.90;;;;;;4962343;28;20896;-86
2023/01/07 10:18:25;;;;;;;;;;;;;;;;;;;;;
2023/01/07 10:20:59;;;;;;;4.93;2.67;;;11.30;99.90;;;;;;4960906;28;20471;-85
2023/01/07 10:23:41;;;;;;;5.07;2.50;;;11.30;99.90;;;;;;4950956;28;20470;-86
2023/01/07 10:26:40;;;;;;;5.83;3.37;;;11.30;99.90;;;;;;4961162;28;20853;-85
2023/01/07 10:29:27;;;;;;;6.97;3.47;;;11.40;99.90;;;;;;4960828;28;21057;-85
2023/01/07 10:32:05;;;;;;;8.77;4.10;;;11.40;99.90;;;;;;4960492;28;20459;-85
2023/01/07 10:34:55;;;;;;;8.10;3.63;;;11.50;99.90;;;;;;4960649;29;20456;-88
2023/01/07 10:37:42;;;;;;;5.80;2.83;;;11.60;99.90;;;;;;4974686;28;20443;-86
2023/01/07 10:40:26;;;;;;;5.47;3.67;;;11.60;99.90;;;;;;4979680;28;20479;-85
2023/01/07 10:43:48;;;;;;;6.67;3.07;;;11.60;99.90;;;;;;4964706;28;20459;-85
2023/01/07 10:49:45;;;;;;;5.37;3.20;;;11.60;99.90;;;;;;4967591;28;20468;-83
2023/01/07 10:52:31;;;;;;;5.77;3.10;;;11.80;99.90;;;;;;4966761;28;20476;-84
2023/01/07 10:55:23;;;;;;;7.10;3.97;;;11.70;99.90;;;;;;4965904;28;20448;-85
2023/01/07 10:57:55;;;;;;;8.40;3.90;;;11.70;99.90;;;;;;4981657;28;20462;-85
2023/01/07 11:00:23;;;;;;;7.30;4.43;;;11.80;99.90;;;;;;4984904;28;20474;-84
2023/01/07 11:03:02;;;;;;;8.40;3.63;;;11.70;99.90;;;;;;4985028;28;20487;-84
2023/01/07 11:05:38;;;;;;;6.43;3.60;;;11.60;99.90;;;;;;4977302;28;20499;-84
2023/01/07 11:08:19;;;;;;;7.80;3.70;;;11.70;99.90;;;;;;4965452;28;20463;-84
2023/01/07 11:10:48;;;;;;;6.60;3.40;;;11.70;99.90;;;;;;4970283;28;20540;-86
2023/01/07 11:13:18;;;;;;;4.77;2.87;;;11.70;99.90;;;;;;4965433;28;20764;-85
2023/01/07 11:15:50;;;;;;;5.47;3.40;;;11.80;99.90;;;;;;4964476;28;20474;-85
2023/01/07 11:18:21;;;;;;;6.30;2.87;;;12.00;99.90;;;;;;4965181;28;20483;-85
2023/01/07 11:20:50;;;;;;;4.97;2.50;;;12.10;99.90;;;;;;4966039;28;20480;-84
2023/01/07 11:23:29;;;;;;;4.60;2.10;;;12.30;99.90;;;;;;4972714;28;20464;-85
2023/01/07 11:26:09;;;;;;;4.00;2.07;;;12.20;99.90;;;;;;4984050;28;20554;-88
2023/01/07 11:28:37;;;;;;;3.50;1.60;;;12.20;99.90;;;;;;4976905;28;20539;-84
2023/01/07 11:31:16;;;;;;;4.90;2.47;;;12.30;99.90;;;;;;4968315;28;20447;-85
2023/01/07 11:33:47;;;;;;;4.20;1.57;;;12.30;99.90;;;;;;4968583;28;20455;-87
2023/01/07 11:36:38;;;;;;;3.70;1.30;;;12.20;99.90;;;;;;4966862;28;20472;-84
2023/01/07 11:39:19;;;;;;;3.70;1.30;;;12.40;99.90;;;;;;4967026;28;20474;-84
2023/01/07 11:41:57;;;;;;;3.70;1.40;;;12.20;99.90;;;;;;4965527;28;20451;-84
2023/01/07 11:44:33;;;;;;;4.27;1.40;;;12.30;99.90;;;;;;4978223;28;20451;-85
2023/01/07 11:47:00;;;;;;;3.20;1.10;;;12.40;99.90;;;;;;4983481;28;20458;-84
2023/01/07 11:49:35;;;;;;;3.80;1.40;;;12.40;99.90;;;;;;4969073;28;20539;-85
2023/01/07 11:52:02;;;;;;;3.70;1.40;;;12.40;99.90;;;;;;4964384;28;20562;-84
2023/01/07 11:54:32;;;;;;;4.97;1.30;;;12.30;99.90;;;;;;4963010;28;20458;-82
2023/01/07 11:57:24;;;;;;;3.80;1.50;;;12.30;99.90;;;;;;4963307;28;20444;-84
2023/01/07 12:00:16;;;;;;;3.80;1.30;;;12.30;99.90;;;;;;4965856;29;20490;-84
2023/01/07 12:02:58;;;;;;;3.43;1.20;;;12.20;99.40;;;;;;4980705;28;20454;-85
2023/01/07 12:05:26;;;;;;;3.50;1.17;;;12.80;99.90;;;;;;4981737;28;20530;-84
2023/01/07 12:07:55;;;;;;;3.30;0.90;;;13.40;96.80;;;;;;4967545;28;20492;-88
2023/01/07 12:10:31;;;;;;;3.70;0.80;;;13.60;93.50;;;;;;4971330;28;20999;-85
2023/01/07 12:13:04;;;;;;;4.20;1.50;;;13.60;94.20;;;;;;4979907;28;20494;-85
2023/01/07 12:15:33;;;;;;;5.77;1.17;;;14.10;94.10;;;;;;4965493;28;20473;-88
2023/01/07 12:18:33;;;;;;;3.73;1.00;;;14.40;94.10;;;;;;4962116;28;20461;-85
2023/01/07 12:21:35;;;;;;;3.70;1.10;;;14.60;92.90;;;;;;4977765;28;20512;-85
2023/01/07 12:24:22;;;;;;;3.70;1.07;;;14.70;92.20;;;;;;4976910;28;20465;-85
2023/01/07 12:26:58;;;;;;;3.80;1.00;;;15.10;93.00;;;;;;4960824;28;20462;-85
2023/01/07 12:29:38;;;;;;;4.07;1.23;;;15.30;91.80;;;;;;4966612;28;20543;-85
2023/01/07 12:32:20;;;;;;;3.50;0.80;;;15.20;89.10;;;;;;4971411;28;20524;-85
2023/01/07 12:34:53;;;;;;;6.90;1.00;;;15.30;89.50;;;;;;4968367;28;20476;-85
2023/01/07 12:37:30;;;;;;;4.53;1.30;;;15.10;87.40;;;;;;4976960;28;20453;-89
2023/01/07 12:40:07;;;;;;;3.80;1.00;;;15.00;89.60;;;;;;4970389;28;20493;-85
2023/01/07 12:42:39;;;;;;;3.90;1.10;;;15.00;87.30;;;;;;4959782;29;21033;-85
2023/01/07 12:45:17;;;;;;;3.80;1.20;;;14.80;90.20;;;;;;4960204;29;20512;-85
2023/01/07 12:47:50;;;;;;;4.67;1.20;;;14.50;90.40;;;;;;4959573;29;20492;-86
2023/01/07 12:50:23;;;;;;;7.23;1.60;;;14.50;90.30;;;;;;4976077;28;20491;-84
2023/01/07 12:52:54;;;;;;;4.30;1.60;;;14.30;90.50;;;;;;4971791;28;20628;-85
2023/01/07 12:55:23;;;;;;;6.33;1.80;;;14.10;88.40;;;;;;4959548;29;20560;-87
2023/01/07 12:57:59;;;;;;;4.77;2.03;;;14.30;91.10;;;;;;4960480;28;20458;-85
2023/01/07 13:00:35;;;;;;;5.70;1.73;;;14.20;89.10;;;;;;4959282;29;20576;-85
2023/01/07 13:03:17;;;;;;;4.60;1.80;;;14.20;89.30;;;;;;4958739;29;20902;-85
2023/01/07 13:05:52;;;;;;;4.60;1.57;;;13.80;91.10;;;;;;4960866;28;20480;-86
2023/01/07 13:08:28;;;;;;;8.30;1.87;;;13.70;90.70;;;;;;4965074;28;20454;-85
2023/01/07 13:10:59;;;;;;;4.13;1.53;;;13.50;92.20;;;;;;4981071;28;20465;-85
2023/01/07 13:13:31;;;;;;;4.90;1.90;;;13.30;91.70;;;;;;4976920;28;20528;-84
2023/01/07 13:16:00;;;;;;;5.37;1.80;;;13.20;92.30;;;;;;4961382;28;20470;-86
2023/01/07 13:18:29;;;;;;;4.70;1.73;;;13.10;92.80;;;;;;4965482;28;20462;-85
2023/01/07 13:21:23;;;;;;;5.03;1.77;;;13.20;94.10;;;;;;4977444;28;20473;-84
2023/01/07 13:24:06;;;;;;;4.57;1.60;;;13.10;92.40;;;;;;4970403;28;20452;-85
2023/01/07 13:26:43;;;;;;;4.23;1.40;;;13.20;93.00;;;;;;4984884;28;20486;-85
2023/01/07 13:29:27;;;;;;;5.33;2.23;;;13.20;92.30;;;;;;4978212;28;20482;-85
2023/01/07 13:32:37;;;;;;;4.40;1.60;;;13.30;93.40;;;;;;4966174;28;20455;-85
2023/01/07 13:35:21;;;;;;;4.90;1.50;;;13.30;92.90;;;;;;4974983;28;20565;-85
2023/01/07 13:38:07;;;;;;;6.13;1.73;;;13.20;92.80;;;;;;4985448;28;20464;-85
2023/01/07 13:40:58;;;;;;;4.30;1.40;;;13.10;93.50;;;;;;4979567;28;20532;-85
2023/01/07 13:43:39;;;;;;;5.00;2.10;;;13.00;93.30;;;;;;4966408;29;20450;-86
2023/01/07 13:46:12;;;;;;;5.30;2.03;;;13.10;94.30;;;;;;4965740;29;20504;-84